createdAt,value
2018-08-22T00:00:56.913Z,20.66
2018-08-22T00:01:56.929Z,20.62
2018-08-22T00:02:56.876Z,20.59
2018-08-22T00:03:56.941Z,20.61
2018-08-22T00:04:56.836Z,20.58
2018-08-22T00:05:56.854Z,20.51
2018-08-22T00:06:56.797Z,20.41
2018-08-22T00:07:56.865Z,20.50
2018-08-22T00:08:56.811Z,20.47
2018-08-22T00:09:56.774Z,20.47
2018-08-22T00:10:56.714Z,20.42
2018-08-22T00:11:56.788Z,20.41
2018-08-22T00:12:56.678Z,20.42
2018-08-22T00:13:56.697Z,20.41
2018-08-22T00:14:56.635Z,20.39
2018-08-22T00:15:56.707Z,20.47
2018-08-22T00:16:56.598Z,20.46
2018-08-22T00:17:56.619Z,20.33
2018-08-22T00:18:56.551Z,20.38
2018-08-22T00:19:56.631Z,20.30
2018-08-22T00:20:56.518Z,20.31
2018-08-22T00:21:56.542Z,20.28
2018-08-22T00:22:56.476Z,20.20
2018-08-22T00:23:56.554Z,20.20
2018-08-22T00:24:56.437Z,20.23
2018-08-22T00:25:56.465Z,20.18
2018-08-22T00:26:56.442Z,20.12
2018-08-22T00:27:56.482Z,20.20
2018-08-22T00:28:56.384Z,20.12
2018-08-22T00:29:56.387Z,20.12
2018-08-22T00:30:56.321Z,20.05
2018-08-22T00:31:56.399Z,19.95
2018-08-22T00:32:56.277Z,20.03
2018-08-22T00:33:56.312Z,20.02
2018-08-22T00:34:56.234Z,20.00
2018-08-22T00:35:56.324Z,19.91
2018-08-22T00:36:56.198Z,20.00
2018-08-22T00:37:56.231Z,19.90
2018-08-22T00:38:56.152Z,19.94
2018-08-22T00:39:56.244Z,19.98
2018-08-22T00:40:56.115Z,19.88
2018-08-22T00:41:56.153Z,19.84
2018-08-22T00:42:56.075Z,19.88
2018-08-22T00:43:56.166Z,19.87
2018-08-22T00:44:56.034Z,19.84
2018-08-22T00:45:56.076Z,19.79
2018-08-22T00:46:55.992Z,19.84
2018-08-22T00:47:55.988Z,19.76
2018-08-22T00:48:55.955Z,19.80
2018-08-22T00:49:56.001Z,19.78
2018-08-22T00:50:55.915Z,19.76
2018-08-22T00:51:55.912Z,19.78
2018-08-22T00:52:55.871Z,19.80
2018-08-22T00:53:55.925Z,19.80
2018-08-22T00:54:55.842Z,19.78
2018-08-22T00:55:55.840Z,19.76
2018-08-22T00:56:55.792Z,19.78
2018-08-22T00:57:55.851Z,19.78
2018-08-22T00:58:55.753Z,19.72
2018-08-22T00:59:55.759Z,19.75
2018-08-22T01:00:55.712Z,19.63
2018-08-22T01:01:55.772Z,19.66
2018-08-22T01:02:55.668Z,19.68
2018-08-22T01:03:56.706Z,19.65
2018-08-22T01:04:55.630Z,19.65
2018-08-22T01:05:55.694Z,19.54
2018-08-22T01:06:55.588Z,19.60
2018-08-22T01:07:55.597Z,19.54
2018-08-22T01:08:55.548Z,19.60
2018-08-22T01:09:55.619Z,19.54
2018-08-22T01:10:55.505Z,19.53
2018-08-22T01:11:55.524Z,19.51
2018-08-22T01:12:55.465Z,19.60
2018-08-22T01:13:55.534Z,19.60
2018-08-22T01:14:55.427Z,19.60
2018-08-22T01:15:55.446Z,19.53
2018-08-22T01:16:55.384Z,19.57
2018-08-22T01:17:55.461Z,19.61
2018-08-22T01:18:55.344Z,19.61
2018-08-22T01:19:55.367Z,19.53
2018-08-22T01:20:55.302Z,19.60
2018-08-22T01:21:55.383Z,19.65
2018-08-22T01:22:55.267Z,19.51
2018-08-22T01:23:55.290Z,19.63
2018-08-22T01:24:55.223Z,19.53
2018-08-22T01:25:55.301Z,19.65
2018-08-22T01:26:55.174Z,19.57
2018-08-22T01:27:55.210Z,19.58
2018-08-22T01:28:55.140Z,19.54
2018-08-22T01:29:55.224Z,19.63
2018-08-22T01:30:55.102Z,19.51
2018-08-22T01:31:55.135Z,19.51
2018-08-22T01:32:55.056Z,19.60
2018-08-22T01:33:55.148Z,19.54
2018-08-22T01:34:55.014Z,19.53
2018-08-22T01:35:55.058Z,19.60
2018-08-22T01:36:54.972Z,19.57
2018-08-22T01:37:54.968Z,19.54
2018-08-22T01:38:54.933Z,19.60
2018-08-22T01:39:54.983Z,19.57
2018-08-22T01:40:54.895Z,19.57
2018-08-22T01:41:54.888Z,19.55
2018-08-22T01:42:54.850Z,19.57
2018-08-22T01:43:54.904Z,19.53
2018-08-22T01:44:54.809Z,19.53
2018-08-22T01:45:54.813Z,19.51
2018-08-22T01:46:54.767Z,19.50
2018-08-22T01:47:54.825Z,19.46
2018-08-22T01:48:54.724Z,19.47
2018-08-22T01:49:57.503Z,19.51
2018-08-22T01:50:54.701Z,19.51
2018-08-22T01:51:54.747Z,19.48
2018-08-22T01:52:54.642Z,19.46
2018-08-22T01:53:54.661Z,19.48
2018-08-22T01:54:54.605Z,19.43
2018-08-22T01:55:54.669Z,19.47
2018-08-22T01:56:54.563Z,19.47
2018-08-22T01:57:54.583Z,19.48
2018-08-22T01:58:54.599Z,19.36
2018-08-22T01:59:54.592Z,19.38
2018-08-22T02:00:54.485Z,19.39
2018-08-22T02:01:54.501Z,19.38
2018-08-22T02:02:54.438Z,19.40
2018-08-22T02:03:54.513Z,19.32
2018-08-22T02:04:54.395Z,19.31
2018-08-22T02:05:54.423Z,19.35
2018-08-22T02:06:54.356Z,19.31
2018-08-22T02:07:54.436Z,19.29
2018-08-22T02:08:54.317Z,19.32
2018-08-22T02:09:54.346Z,19.33
2018-08-22T02:10:54.275Z,19.29
2018-08-22T02:11:54.358Z,19.28
2018-08-22T02:12:54.231Z,19.25
2018-08-22T02:13:54.270Z,19.28
2018-08-22T02:14:54.186Z,19.32
2018-08-22T02:15:54.284Z,19.14
2018-08-22T02:16:54.151Z,19.20
2018-08-22T02:17:54.194Z,19.15
2018-08-22T02:18:54.110Z,19.18
2018-08-22T02:19:54.105Z,19.17
2018-08-22T02:20:54.068Z,19.13
2018-08-22T02:21:54.120Z,19.13
2018-08-22T02:22:54.024Z,19.01
2018-08-22T02:23:54.028Z,19.10
2018-08-22T02:24:53.989Z,19.11
2018-08-22T02:25:54.039Z,19.05
2018-08-22T02:26:53.947Z,19.02
2018-08-22T02:27:53.953Z,19.17
2018-08-22T02:28:53.902Z,19.08
2018-08-22T02:29:53.969Z,19.01
2018-08-22T02:30:53.859Z,19.01
2018-08-22T02:31:53.869Z,18.99
2018-08-22T02:32:53.816Z,18.98
2018-08-22T02:33:53.882Z,19.01
2018-08-22T02:34:53.774Z,18.91
2018-08-22T02:35:53.790Z,18.83
2018-08-22T02:36:53.732Z,18.90
2018-08-22T02:37:53.804Z,18.82
2018-08-22T02:38:53.694Z,18.80
2018-08-22T02:39:53.713Z,18.79
2018-08-22T02:40:53.646Z,18.72
2018-08-22T02:41:53.729Z,18.73
2018-08-22T02:42:53.608Z,18.76
2018-08-22T02:43:53.636Z,18.67
2018-08-22T02:44:53.568Z,18.73
2018-08-22T02:45:53.650Z,18.76
2018-08-22T02:46:53.526Z,18.68
2018-08-22T02:47:53.559Z,18.70
2018-08-22T02:48:53.484Z,18.67
2018-08-22T02:49:53.571Z,18.73
2018-08-22T02:50:53.438Z,18.68
2018-08-22T02:51:53.482Z,18.74
2018-08-22T02:52:53.396Z,18.70
2018-08-22T02:53:53.395Z,18.72
2018-08-22T02:54:53.355Z,18.59
2018-08-22T02:55:53.407Z,18.72
2018-08-22T02:56:53.314Z,18.64
2018-08-22T02:57:53.313Z,18.70
2018-08-22T02:58:53.275Z,18.65
2018-08-22T02:59:53.329Z,18.67
2018-08-22T03:00:53.230Z,18.68
2018-08-22T03:01:53.237Z,18.61
2018-08-22T03:02:53.184Z,18.68
2018-08-22T03:03:53.250Z,18.72
2018-08-22T03:04:53.145Z,18.68
2018-08-22T03:05:53.162Z,18.67
2018-08-22T03:06:53.103Z,18.67
2018-08-22T03:07:53.175Z,18.70
2018-08-22T03:08:53.063Z,18.68
2018-08-22T03:09:53.084Z,18.62
2018-08-22T03:10:53.021Z,18.62
2018-08-22T03:11:53.092Z,18.70
2018-08-22T03:12:52.976Z,18.64
2018-08-22T03:13:53.005Z,18.70
2018-08-22T03:14:52.934Z,18.70
2018-08-22T03:15:53.015Z,18.72
2018-08-22T03:16:52.894Z,18.79
2018-08-22T03:17:52.931Z,18.67
2018-08-22T03:18:52.850Z,18.72
2018-08-22T03:19:52.940Z,18.73
2018-08-22T03:20:52.810Z,18.72
2018-08-22T03:21:52.850Z,18.77
2018-08-22T03:22:52.774Z,18.76
2018-08-22T03:23:52.766Z,18.79
2018-08-22T03:24:52.732Z,18.80
2018-08-22T03:25:52.776Z,18.77
2018-08-22T03:26:52.768Z,18.76
2018-08-22T03:27:52.684Z,18.79
2018-08-22T03:28:52.636Z,18.74
2018-08-22T03:29:52.701Z,18.68
2018-08-22T03:30:52.621Z,18.82
2018-08-22T03:31:52.607Z,18.79
2018-08-22T03:32:52.559Z,18.79
2018-08-22T03:33:52.618Z,18.76
2018-08-22T03:34:52.515Z,18.79
2018-08-22T03:35:52.529Z,18.74
2018-08-22T03:36:52.475Z,18.80
2018-08-22T03:37:52.544Z,18.73
2018-08-22T03:38:52.428Z,18.72
2018-08-22T03:39:52.452Z,18.80
2018-08-22T03:40:52.385Z,18.79
2018-08-22T03:41:52.465Z,18.68
2018-08-22T03:42:52.345Z,18.76
2018-08-22T03:43:52.373Z,18.74
2018-08-22T03:44:52.304Z,18.70
2018-08-22T03:45:52.386Z,18.68
2018-08-22T03:46:52.261Z,18.73
2018-08-22T03:47:52.293Z,18.67
2018-08-22T03:48:52.217Z,18.70
2018-08-22T03:49:52.312Z,18.68
2018-08-22T03:50:52.173Z,18.72
2018-08-22T03:51:52.219Z,18.67
2018-08-22T03:52:52.132Z,18.70
2018-08-22T03:53:52.129Z,18.68
2018-08-22T03:54:52.092Z,18.68
2018-08-22T03:55:52.142Z,18.70
2018-08-22T03:56:52.052Z,18.83
2018-08-22T03:57:52.050Z,18.73
2018-08-22T03:58:52.005Z,18.68
2018-08-22T03:59:52.061Z,18.74
2018-08-22T04:00:51.967Z,18.72
2018-08-22T04:01:51.971Z,18.72
2018-08-22T04:02:51.924Z,18.73
2018-08-22T04:03:51.987Z,18.70
2018-08-22T04:04:51.878Z,18.72
2018-08-22T04:05:51.892Z,18.70
2018-08-22T04:06:51.839Z,18.68
2018-08-22T04:07:51.907Z,18.76
2018-08-22T04:08:51.797Z,18.73
2018-08-22T04:09:51.818Z,18.74
2018-08-22T04:10:51.752Z,18.73
2018-08-22T04:11:51.830Z,18.68
2018-08-22T04:12:51.710Z,18.72
2018-08-22T04:13:51.740Z,18.72
2018-08-22T04:14:51.670Z,18.70
2018-08-22T04:15:51.752Z,18.73
2018-08-22T04:16:51.625Z,18.67
2018-08-22T04:17:51.665Z,18.70
2018-08-22T04:18:51.586Z,18.72
2018-08-22T04:19:51.678Z,18.70
2018-08-22T04:20:51.544Z,18.70
2018-08-22T04:21:51.628Z,18.73
2018-08-22T04:22:51.496Z,18.68
2018-08-22T04:23:51.498Z,18.70
2018-08-22T04:24:51.479Z,18.72
2018-08-22T04:25:51.510Z,18.65
2018-08-22T04:26:51.408Z,18.52
2018-08-22T04:27:51.414Z,18.76
2018-08-22T04:28:51.370Z,18.62
2018-08-22T04:29:51.433Z,18.68
2018-08-22T04:30:51.345Z,18.68
2018-08-22T04:31:51.338Z,18.72
2018-08-22T04:32:51.287Z,18.64
2018-08-22T04:33:51.352Z,18.64
2018-08-22T04:34:51.247Z,18.64
2018-08-22T04:35:51.261Z,18.65
2018-08-22T04:36:51.204Z,18.61
2018-08-22T04:37:51.274Z,18.57
2018-08-22T04:38:51.163Z,18.59
2018-08-22T04:39:51.187Z,18.47
2018-08-22T04:40:51.113Z,18.58
2018-08-22T04:41:51.202Z,18.44
2018-08-22T04:42:51.072Z,18.43
2018-08-22T04:43:51.105Z,18.46
2018-08-22T04:44:51.030Z,18.42
2018-08-22T04:45:51.118Z,18.46
2018-08-22T04:46:50.995Z,18.52
2018-08-22T04:47:51.028Z,18.43
2018-08-22T04:48:50.944Z,18.47
2018-08-22T04:49:50.943Z,18.49
2018-08-22T04:50:50.901Z,18.50
2018-08-22T04:51:50.954Z,18.54
2018-08-22T04:52:50.860Z,18.43
2018-08-22T04:53:50.865Z,18.47
2018-08-22T04:54:50.816Z,18.46
2018-08-22T04:55:50.879Z,18.44
2018-08-22T04:56:50.781Z,18.40
2018-08-22T04:57:50.790Z,18.34
2018-08-22T04:58:50.735Z,18.44
2018-08-22T04:59:50.803Z,18.36
2018-08-22T05:00:50.689Z,18.42
2018-08-22T05:01:50.708Z,18.37
2018-08-22T05:02:50.651Z,18.42
2018-08-22T05:03:50.722Z,18.39
2018-08-22T05:04:50.608Z,18.39
2018-08-22T05:05:50.637Z,18.36
2018-08-22T05:06:50.568Z,18.39
2018-08-22T05:07:50.650Z,18.36
2018-08-22T05:08:50.520Z,18.39
2018-08-22T05:09:50.556Z,18.39
2018-08-22T05:10:50.478Z,18.28
2018-08-22T05:11:50.568Z,18.29
2018-08-22T05:12:50.436Z,18.37
2018-08-22T05:13:50.482Z,18.36
2018-08-22T05:14:50.398Z,18.37
2018-08-22T05:15:50.384Z,18.39
2018-08-22T05:16:50.348Z,18.40
2018-08-22T05:17:50.397Z,18.40
2018-08-22T05:18:50.307Z,18.42
2018-08-22T05:19:50.311Z,18.46
2018-08-22T05:20:50.263Z,18.50
2018-08-22T05:21:50.319Z,18.47
2018-08-22T05:22:50.223Z,18.50
2018-08-22T05:23:50.230Z,18.65
2018-08-22T05:24:50.263Z,18.59
2018-08-22T05:25:50.243Z,18.65
2018-08-22T05:26:50.136Z,18.62
2018-08-22T05:27:50.155Z,18.61
2018-08-22T05:28:50.094Z,18.64
2018-08-22T05:29:50.165Z,18.65
2018-08-22T05:30:50.051Z,18.73
2018-08-22T05:31:50.073Z,18.57
2018-08-22T05:32:50.011Z,18.68
2018-08-22T05:33:50.087Z,18.65
2018-08-22T05:34:49.970Z,18.67
2018-08-22T05:35:49.997Z,18.72
2018-08-22T05:36:49.929Z,18.72
2018-08-22T05:37:50.009Z,18.67
2018-08-22T05:38:49.883Z,18.72
2018-08-22T05:39:49.919Z,18.76
2018-08-22T05:40:49.843Z,18.74
2018-08-22T05:41:49.831Z,18.80
2018-08-22T05:42:49.794Z,18.80
2018-08-22T05:43:49.842Z,18.86
2018-08-22T05:44:49.753Z,18.84
2018-08-22T05:45:49.752Z,18.87
2018-08-22T05:46:49.706Z,18.95
2018-08-22T05:47:49.763Z,18.94
2018-08-22T05:48:49.670Z,18.87
2018-08-22T05:49:49.674Z,18.95
2018-08-22T05:50:49.622Z,18.95
2018-08-22T05:51:49.688Z,19.10
2018-08-22T05:52:49.587Z,19.06
2018-08-22T05:53:49.601Z,19.11
2018-08-22T05:54:49.545Z,19.11
2018-08-22T05:55:49.613Z,19.14
2018-08-22T05:56:49.497Z,19.17
2018-08-22T05:57:49.522Z,19.17
2018-08-22T05:58:49.454Z,19.29
2018-08-22T05:59:49.538Z,19.28
2018-08-22T06:00:49.416Z,19.29
2018-08-22T06:01:49.448Z,19.28
2018-08-22T06:02:49.369Z,19.29
2018-08-22T06:03:49.459Z,19.35
2018-08-22T06:04:49.328Z,19.38
2018-08-22T06:05:49.370Z,19.35
2018-08-22T06:06:49.285Z,19.38
2018-08-22T06:07:49.380Z,19.47
2018-08-22T06:08:49.243Z,19.54
2018-08-22T06:09:49.286Z,19.54
2018-08-22T06:10:49.200Z,19.55
2018-08-22T06:11:49.201Z,19.57
2018-08-22T06:12:49.164Z,19.65
2018-08-22T06:13:49.208Z,19.58
2018-08-22T06:14:49.116Z,19.61
2018-08-22T06:15:49.139Z,19.66
2018-08-22T06:16:49.083Z,19.68
2018-08-22T06:17:49.133Z,19.73
2018-08-22T06:18:49.036Z,19.75
2018-08-22T06:19:49.042Z,19.79
2018-08-22T06:20:48.993Z,19.86
2018-08-22T06:21:49.060Z,19.88
2018-08-22T06:22:48.952Z,19.88
2018-08-22T06:23:48.967Z,19.98
2018-08-22T06:24:48.909Z,20.05
2018-08-22T06:25:48.980Z,19.97
2018-08-22T06:26:48.870Z,20.06
2018-08-22T06:27:48.887Z,20.09
2018-08-22T06:28:48.825Z,20.16
2018-08-22T06:29:48.903Z,20.20
2018-08-22T06:30:48.781Z,20.20
2018-08-22T06:31:48.810Z,20.31
2018-08-22T06:32:48.747Z,20.25
2018-08-22T06:33:48.823Z,20.25
2018-08-22T06:34:48.697Z,20.39
2018-08-22T06:35:48.733Z,20.43
2018-08-22T06:36:48.662Z,20.41
2018-08-22T06:37:48.746Z,20.47
2018-08-22T06:38:48.618Z,20.58
2018-08-22T06:39:48.655Z,20.58
2018-08-22T06:40:48.579Z,20.58
2018-08-22T06:41:48.668Z,20.61
2018-08-22T06:42:48.538Z,20.62
2018-08-22T06:43:48.578Z,20.68
2018-08-22T06:44:48.495Z,20.66
2018-08-22T06:45:48.489Z,20.59
2018-08-22T06:46:48.456Z,20.62
2018-08-22T06:47:48.500Z,20.69
2018-08-22T06:48:48.419Z,20.69
2018-08-22T06:49:48.413Z,20.79
2018-08-22T06:50:48.376Z,20.76
2018-08-22T06:51:48.464Z,20.79
2018-08-22T06:52:48.333Z,20.90
2018-08-22T06:53:48.376Z,20.86
2018-08-22T06:54:48.294Z,20.90
2018-08-22T06:55:48.390Z,20.93
2018-08-22T06:56:48.255Z,20.93
2018-08-22T06:57:48.303Z,21.08
2018-08-22T06:58:48.211Z,21.05
2018-08-22T06:59:48.317Z,21.11
2018-08-22T07:00:48.173Z,21.20
2018-08-22T07:01:48.228Z,21.30
2018-08-22T07:02:48.132Z,21.27
2018-08-22T07:03:48.243Z,21.38
2018-08-22T07:04:48.091Z,21.38
2018-08-22T07:05:48.154Z,21.44
2018-08-22T07:06:48.051Z,21.56
2018-08-22T07:07:48.168Z,21.61
2018-08-22T07:08:48.013Z,21.54
2018-08-22T07:09:48.079Z,21.75
2018-08-22T07:10:47.970Z,21.74
2018-08-22T07:11:48.095Z,21.71
2018-08-22T07:12:47.933Z,21.74
2018-08-22T07:13:48.006Z,21.74
2018-08-22T07:14:47.892Z,21.82
2018-08-22T07:15:48.022Z,21.78
2018-08-22T07:16:47.854Z,21.95
2018-08-22T07:17:47.933Z,21.81
2018-08-22T07:18:47.812Z,21.85
2018-08-22T07:19:47.795Z,21.91
2018-08-22T07:20:47.903Z,22.01
2018-08-22T07:21:47.756Z,21.92
2018-08-22T07:22:47.865Z,22.04
2018-08-22T07:23:47.770Z,22.06
2018-08-22T07:24:47.692Z,22.10
2018-08-22T07:25:47.787Z,22.25
2018-08-22T07:26:47.651Z,22.28
2018-08-22T07:27:47.696Z,22.23
2018-08-22T07:28:47.613Z,22.28
2018-08-22T07:29:47.710Z,22.25
2018-08-22T07:30:47.576Z,22.38
2018-08-22T07:31:47.623Z,22.38
2018-08-22T07:32:47.534Z,22.46
2018-08-22T07:33:47.532Z,22.47
2018-08-22T07:34:47.495Z,22.46
2018-08-22T07:35:47.588Z,22.49
2018-08-22T07:36:47.455Z,22.47
2018-08-22T07:37:47.460Z,22.56
2018-08-22T07:38:47.415Z,22.47
2018-08-22T07:39:47.477Z,22.47
2018-08-22T07:40:47.382Z,22.54
2018-08-22T07:41:47.387Z,22.53
2018-08-22T07:42:47.339Z,22.53
2018-08-22T07:43:47.404Z,22.62
2018-08-22T07:44:47.298Z,22.62
2018-08-22T07:45:47.311Z,22.60
2018-08-22T07:46:47.263Z,22.64
2018-08-22T07:47:47.326Z,22.68
2018-08-22T07:48:47.220Z,22.69
2018-08-22T07:49:47.238Z,22.69
2018-08-22T07:50:47.188Z,22.72
2018-08-22T07:51:47.259Z,22.86
2018-08-22T07:52:47.147Z,22.86
2018-08-22T07:53:47.162Z,22.86
2018-08-22T07:54:47.104Z,22.84
2018-08-22T07:55:47.177Z,22.96
2018-08-22T07:56:47.068Z,22.93
2018-08-22T07:57:47.095Z,22.96
2018-08-22T07:58:47.026Z,23.02
2018-08-22T07:59:47.109Z,23.08
2018-08-22T08:00:46.991Z,23.12
2018-08-22T08:01:47.025Z,23.04
2018-08-22T08:02:46.951Z,23.07
2018-08-22T08:03:47.032Z,23.20
2018-08-22T08:04:46.941Z,23.22
2018-08-22T08:05:46.951Z,23.23
2018-08-22T08:06:46.873Z,23.24
2018-08-22T08:07:46.958Z,23.32
2018-08-22T08:08:47.010Z,23.26
2018-08-22T08:09:46.868Z,23.38
2018-08-22T08:10:46.807Z,23.31
2018-08-22T08:11:46.886Z,23.35
2018-08-22T08:12:46.763Z,23.34
2018-08-22T08:13:46.793Z,23.45
2018-08-22T08:14:46.723Z,23.43
2018-08-22T08:15:46.809Z,23.42
2018-08-22T08:16:46.689Z,23.57
2018-08-22T08:17:46.722Z,23.52
2018-08-22T08:18:46.649Z,23.64
2018-08-22T08:19:46.736Z,23.76
2018-08-22T08:20:46.610Z,23.72
2018-08-22T08:21:46.598Z,23.76
2018-08-22T08:22:46.572Z,23.89
2018-08-22T08:23:46.664Z,23.86
2018-08-22T08:24:46.540Z,23.89
2018-08-22T08:25:46.572Z,23.95
2018-08-22T08:26:46.594Z,23.94
2018-08-22T08:27:46.585Z,24.05
2018-08-22T08:28:46.465Z,24.00
2018-08-22T08:29:46.500Z,24.05
2018-08-22T08:30:46.425Z,24.08
2018-08-22T08:31:46.513Z,24.08
2018-08-22T08:32:46.389Z,24.22
2018-08-22T08:33:46.425Z,24.10
2018-08-22T08:34:46.349Z,24.13
2018-08-22T08:35:46.470Z,24.26
2018-08-22T08:36:46.346Z,24.34
2018-08-22T08:37:46.350Z,24.31
2018-08-22T08:38:46.274Z,24.35
2018-08-22T08:39:46.365Z,24.31
2018-08-22T08:40:46.241Z,24.35
2018-08-22T08:41:46.371Z,24.44
2018-08-22T08:42:46.205Z,24.50
2018-08-22T08:43:46.291Z,24.42
2018-08-22T08:44:46.167Z,24.42
2018-08-22T08:45:46.202Z,24.56
2018-08-22T08:46:46.142Z,24.67
2018-08-22T08:47:46.215Z,24.59
2018-08-22T08:48:46.096Z,24.63
2018-08-22T08:49:46.129Z,24.75
2018-08-22T08:50:46.056Z,24.68
2018-08-22T08:51:46.163Z,24.67
2018-08-22T08:52:46.025Z,24.80
2018-08-22T08:53:46.055Z,24.77
2018-08-22T08:54:45.983Z,24.82
2018-08-22T08:55:46.091Z,24.98
2018-08-22T08:56:45.948Z,24.97
2018-08-22T08:57:45.983Z,24.98
2018-08-22T08:58:45.915Z,25.05
2018-08-22T08:59:45.996Z,25.00
2018-08-22T09:00:45.880Z,25.16
2018-08-22T09:01:45.907Z,25.10
2018-08-22T09:02:45.839Z,25.22
2018-08-22T09:03:45.932Z,25.31
2018-08-22T09:04:45.804Z,25.31
2018-08-22T09:05:45.836Z,25.44
2018-08-22T09:06:45.767Z,25.47
2018-08-22T09:07:45.849Z,25.61
2018-08-22T09:08:45.736Z,25.79
2018-08-22T09:09:45.760Z,25.87
2018-08-22T09:10:45.741Z,25.91
2018-08-22T09:11:45.776Z,25.89
2018-08-22T09:12:45.663Z,26.12
2018-08-22T09:13:45.686Z,26.31
2018-08-22T09:14:45.630Z,26.42
2018-08-22T09:15:45.771Z,26.61
2018-08-22T09:16:45.599Z,26.72
2018-08-22T09:17:46.652Z,26.98
2018-08-22T09:18:45.559Z,27.16
2018-08-22T09:19:45.627Z,27.31
2018-08-22T09:20:45.523Z,27.41
2018-08-22T09:21:45.542Z,27.59
2018-08-22T09:22:45.495Z,27.62
2018-08-22T09:23:45.555Z,27.70
2018-08-22T09:24:45.455Z,27.80
2018-08-22T09:25:45.471Z,27.96
2018-08-22T09:26:45.427Z,28.09
2018-08-22T09:27:45.487Z,28.25
2018-08-22T09:28:45.397Z,28.41
2018-08-22T09:29:45.402Z,28.62
2018-08-22T09:30:45.357Z,28.95
2018-08-22T09:31:45.412Z,29.35
2018-08-22T09:32:45.324Z,29.47
2018-08-22T09:33:45.344Z,29.62
2018-08-22T09:34:45.429Z,29.87
2018-08-22T09:35:45.296Z,29.99
2018-08-22T09:36:45.446Z,30.02
2018-08-22T09:37:45.248Z,30.11
2018-08-22T09:38:45.227Z,30.07
2018-08-22T09:39:45.236Z,30.03
2018-08-22T09:40:45.369Z,30.15
2018-08-22T09:41:45.174Z,30.27
2018-08-22T09:42:45.282Z,30.52
2018-08-22T09:43:45.141Z,30.53
2018-08-22T09:44:45.296Z,30.53
2018-08-22T09:45:45.113Z,30.46
2018-08-22T09:46:45.215Z,30.52
2018-08-22T09:47:45.079Z,30.74
2018-08-22T09:48:45.220Z,30.89
2018-08-22T09:49:45.047Z,31.08
2018-08-22T09:50:45.256Z,31.26
2018-08-22T09:51:45.018Z,31.36
2018-08-22T09:52:45.145Z,31.60
2018-08-22T09:53:44.986Z,31.99
2018-08-22T09:54:45.322Z,32.13
2018-08-22T09:55:44.957Z,32.24
2018-08-22T09:56:45.078Z,32.32
2018-08-22T09:57:44.927Z,32.18
2018-08-22T09:58:45.088Z,32.20
2018-08-22T09:59:44.914Z,32.14
2018-08-22T10:00:46.070Z,32.15
2018-08-22T10:01:44.871Z,32.35
2018-08-22T10:02:44.909Z,32.36
2018-08-22T10:03:44.841Z,32.39
2018-08-22T10:04:44.923Z,32.10
2018-08-22T10:05:44.819Z,32.02
2018-08-22T10:06:44.921Z,32.06
2018-08-22T10:07:44.782Z,32.02
2018-08-22T10:08:44.848Z,32.06
2018-08-22T10:09:44.752Z,32.13
2018-08-22T10:10:44.861Z,31.98
2018-08-22T10:11:44.724Z,32.07
2018-08-22T10:12:44.774Z,32.21
2018-08-22T10:13:44.702Z,32.18
2018-08-22T10:14:44.789Z,32.00
2018-08-22T10:15:44.668Z,31.82
2018-08-22T10:16:44.698Z,31.82
2018-08-22T10:17:44.644Z,31.84
2018-08-22T10:18:44.713Z,31.88
2018-08-22T10:19:44.715Z,31.99
2018-08-22T10:20:44.730Z,31.99
2018-08-22T10:21:44.589Z,32.10
2018-08-22T10:22:44.639Z,32.05
2018-08-22T10:23:44.561Z,31.99
2018-08-22T10:24:44.661Z,32.17
2018-08-22T10:25:44.533Z,32.42
2018-08-22T10:26:44.566Z,32.59
2018-08-22T10:27:44.503Z,32.86
2018-08-22T10:28:44.583Z,32.99
2018-08-22T10:29:44.480Z,33.03
2018-08-22T10:30:44.599Z,33.30
2018-08-22T10:31:44.454Z,33.48
2018-08-22T10:32:44.554Z,33.74
2018-08-22T10:33:44.421Z,33.70
2018-08-22T10:34:44.518Z,33.83
2018-08-22T10:35:44.398Z,33.71
2018-08-22T10:36:44.538Z,33.67
2018-08-22T10:37:44.372Z,33.46
2018-08-22T10:38:44.453Z,33.41
2018-08-22T10:39:44.364Z,33.31
2018-08-22T10:40:44.466Z,33.33
2018-08-22T10:41:44.321Z,33.31
2018-08-22T10:42:44.379Z,33.31
2018-08-22T10:43:44.296Z,33.37
2018-08-22T10:44:44.391Z,33.37
2018-08-22T10:45:44.271Z,33.46
2018-08-22T10:46:44.406Z,33.48
2018-08-22T10:47:44.248Z,33.33
2018-08-22T10:48:44.317Z,33.08
2018-08-22T10:49:44.220Z,33.11
2018-08-22T10:50:44.397Z,33.15
2018-08-22T10:51:44.193Z,33.17
2018-08-22T10:52:44.348Z,33.36
2018-08-22T10:53:44.173Z,33.60
2018-08-22T10:54:44.257Z,33.89
2018-08-22T10:55:44.149Z,33.85
2018-08-22T10:56:44.273Z,33.94
2018-08-22T10:57:44.127Z,33.94
2018-08-22T10:58:46.233Z,34.02
2018-08-22T10:59:44.099Z,34.08
2018-08-22T11:00:44.140Z,33.97
2018-08-22T11:01:44.078Z,34.09
2018-08-22T11:02:44.216Z,34.07
2018-08-22T11:03:44.053Z,34.07
2018-08-22T11:04:44.196Z,34.01
2018-08-22T11:05:44.036Z,34.09
2018-08-22T11:06:44.136Z,34.13
2018-08-22T11:07:44.008Z,34.17
2018-08-22T11:08:44.154Z,34.11
2018-08-22T11:09:43.992Z,34.31
2018-08-22T11:10:44.065Z,34.13
2018-08-22T11:11:43.951Z,34.05
2018-08-22T11:12:44.084Z,33.80
2018-08-22T11:13:43.940Z,33.95
2018-08-22T11:14:43.991Z,34.08
2018-08-22T11:15:44.088Z,34.07
2018-08-22T11:16:44.010Z,33.87
2018-08-22T11:17:43.889Z,33.34
2018-08-22T11:18:43.923Z,33.22
2018-08-22T11:19:43.870Z,33.07
2018-08-22T11:20:43.933Z,33.30
2018-08-22T11:21:43.848Z,33.45
2018-08-22T11:22:43.963Z,33.74
2018-08-22T11:23:43.838Z,34.00
2018-08-22T11:24:43.859Z,34.13
2018-08-22T11:25:43.819Z,34.09
2018-08-22T11:26:43.872Z,33.97
2018-08-22T11:27:43.777Z,33.73
2018-08-22T11:28:43.783Z,33.71
2018-08-22T11:29:43.763Z,33.71
2018-08-22T11:30:43.801Z,33.74
2018-08-22T11:31:43.738Z,33.48
2018-08-22T11:32:43.811Z,33.37
2018-08-22T11:33:43.720Z,33.13
2018-08-22T11:34:43.725Z,33.03
2018-08-22T11:35:43.716Z,32.79
2018-08-22T11:36:43.740Z,32.84
2018-08-22T11:37:43.677Z,32.99
2018-08-22T11:38:43.754Z,33.15
2018-08-22T11:39:43.650Z,33.15
2018-08-22T11:40:43.667Z,33.33
2018-08-22T11:41:43.652Z,33.27
2018-08-22T11:42:43.683Z,33.43
2018-08-22T11:43:43.607Z,33.55
2018-08-22T11:44:43.743Z,33.70
2018-08-22T11:45:43.585Z,33.82
2018-08-22T11:46:43.652Z,34.20
2018-08-22T11:47:43.568Z,34.36
2018-08-22T11:48:43.619Z,34.61
2018-08-22T11:49:43.549Z,34.51
2018-08-22T11:50:43.635Z,34.80
2018-08-22T11:51:43.522Z,34.60
2018-08-22T11:52:43.548Z,34.16
2018-08-22T11:53:43.507Z,33.79
2018-08-22T11:54:43.580Z,33.43
2018-08-22T11:55:43.485Z,33.58
2018-08-22T11:56:43.576Z,33.65
2018-08-22T11:57:43.460Z,33.87
2018-08-22T11:58:43.486Z,33.92
2018-08-22T11:59:43.439Z,33.80
2018-08-22T12:00:43.500Z,33.71
2018-08-22T12:01:43.423Z,33.61
2018-08-22T12:02:43.514Z,33.58
2018-08-22T12:03:43.390Z,33.49
2018-08-22T12:04:44.451Z,33.22
2018-08-22T12:05:43.374Z,32.85
2018-08-22T12:06:43.441Z,32.67
2018-08-22T12:07:43.359Z,32.59
2018-08-22T12:08:43.451Z,32.51
2018-08-22T12:09:43.349Z,32.64
2018-08-22T12:10:43.370Z,32.74
2018-08-22T12:11:43.320Z,32.93
2018-08-22T12:12:43.311Z,33.11
2018-08-22T12:13:43.288Z,33.23
2018-08-22T12:14:43.289Z,33.49
2018-08-22T12:15:43.268Z,33.68
2018-08-22T12:16:43.308Z,33.70
2018-08-22T12:17:43.260Z,33.67
2018-08-22T12:18:43.324Z,33.53
2018-08-22T12:19:43.225Z,33.45
2018-08-22T12:20:43.234Z,33.45
2018-08-22T12:21:43.206Z,33.63
2018-08-22T12:22:43.218Z,33.71
2018-08-22T12:23:43.185Z,34.00
2018-08-22T12:24:43.272Z,34.05
2018-08-22T12:25:43.161Z,34.19
2018-08-22T12:26:43.176Z,34.42
2018-08-22T12:27:43.144Z,34.41
2018-08-22T12:28:43.197Z,33.83
2018-08-22T12:29:43.123Z,33.33
2018-08-22T12:30:44.133Z,33.29
2018-08-22T12:31:43.105Z,33.27
2018-08-22T12:32:43.098Z,33.29
2018-08-22T12:33:43.083Z,33.45
2018-08-22T12:34:43.137Z,33.57
2018-08-22T12:35:43.061Z,33.26
2018-08-22T12:36:43.159Z,33.41
2018-08-22T12:37:43.093Z,33.31
2018-08-22T12:38:43.036Z,33.34
2018-08-22T12:39:43.019Z,33.13
2018-08-22T12:40:43.015Z,33.30
2018-08-22T12:41:42.999Z,33.49
2018-08-22T12:42:42.997Z,33.67
2018-08-22T12:43:42.976Z,33.80
2018-08-22T12:44:43.015Z,34.00
2018-08-22T12:45:42.961Z,34.07
2018-08-22T12:46:43.026Z,34.08
2018-08-22T12:47:42.938Z,34.23
2018-08-22T12:48:43.038Z,34.41
2018-08-22T12:49:42.919Z,34.09
2018-08-22T12:50:42.929Z,33.83
2018-08-22T12:51:42.897Z,32.91
2018-08-22T12:52:42.964Z,32.62